createdAt,value
2018-03-22T00:02:20.764Z,8.40
2018-03-22T00:04:47.802Z,8.30
2018-03-22T00:07:14.855Z,8.30
2018-03-22T00:09:41.907Z,8.30
2018-03-22T00:12:09.055Z,8.30
2018-03-22T00:14:36.206Z,8.30
2018-03-22T00:17:03.152Z,8.20
2018-03-22T00:19:30.214Z,8.20
2018-03-22T00:21:57.468Z,8.10
2018-03-22T00:24:24.515Z,8.10
2018-03-22T00:26:51.564Z,8.10
2018-03-22T00:29:18.616Z,8.10
2018-03-22T00:31:45.653Z,8.10
2018-03-22T00:34:12.816Z,8.00
2018-03-22T00:36:40.059Z,8.00
2018-03-22T00:39:07.108Z,7.90
2018-03-22T00:41:34.032Z,7.90
2018-03-22T00:44:01.113Z,7.90
2018-03-22T00:46:28.184Z,7.80
2018-03-22T00:48:56.139Z,7.80
2018-03-22T00:51:23.184Z,7.80
2018-03-22T00:53:50.224Z,7.80
2018-03-22T00:56:17.282Z,7.80
2018-03-22T00:58:44.331Z,7.80
2018-03-22T01:01:11.381Z,7.80
2018-03-22T01:03:39.141Z,7.70
2018-03-22T01:06:06.087Z,7.70
2018-03-22T01:08:33.032Z,7.70
2018-03-22T01:11:00.093Z,7.70
2018-03-22T01:13:28.258Z,7.70
2018-03-22T01:15:55.207Z,7.70
2018-03-22T01:18:22.256Z,7.60
2018-03-22T01:20:49.311Z,7.60
2018-03-22T01:23:16.354Z,7.60
2018-03-22T01:25:43.311Z,7.70
2018-03-22T01:28:10.247Z,7.60
2018-03-22T01:30:39.140Z,7.60
2018-03-22T01:33:06.191Z,7.60
2018-03-22T01:35:33.249Z,7.60
2018-03-22T01:38:00.295Z,7.60
2018-03-22T01:40:27.338Z,7.60
2018-03-22T01:42:54.497Z,7.50
2018-03-22T01:45:21.541Z,7.50
2018-03-22T01:47:48.510Z,7.50
2018-03-22T01:50:15.537Z,7.50
2018-03-22T01:52:54.771Z,7.50
2018-03-22T01:55:22.027Z,7.40
2018-03-22T01:57:49.076Z,7.40
2018-03-22T02:00:16.122Z,7.40
2018-03-22T02:02:43.072Z,7.40
2018-03-22T02:05:09.896Z,7.40
2018-03-22T02:07:36.969Z,7.40
2018-03-22T02:10:04.179Z,7.30
2018-03-22T02:12:31.269Z,7.40
2018-03-22T02:14:58.173Z,7.30
2018-03-22T02:17:25.189Z,7.30
2018-03-22T02:19:53.031Z,7.30
2018-03-22T02:22:19.977Z,7.30
2018-03-22T02:24:47.037Z,7.30
2018-03-22T02:27:14.077Z,7.30
2018-03-22T02:29:41.022Z,7.30
2018-03-22T02:32:08.071Z,7.20
2018-03-22T02:34:35.140Z,7.20
2018-03-22T02:37:02.178Z,7.20
2018-03-22T02:39:29.134Z,7.20
2018-03-22T02:41:56.066Z,7.20
2018-03-22T02:44:23.936Z,7.10
2018-03-22T02:46:50.766Z,7.10
2018-03-22T02:49:17.827Z,7.10
2018-03-22T02:51:44.880Z,7.10
2018-03-22T02:54:11.826Z,7.10
2018-03-22T02:56:38.885Z,7.10
2018-03-22T02:59:05.717Z,7.10
2018-03-22T03:01:32.769Z,7.10
2018-03-22T03:03:59.714Z,7.10
2018-03-22T03:06:26.778Z,7.00
2018-03-22T03:08:53.822Z,7.00
2018-03-22T03:11:20.865Z,7.00
2018-03-22T03:13:47.922Z,7.00
2018-03-22T03:16:14.972Z,7.00
2018-03-22T03:18:42.115Z,7.00
2018-03-22T03:21:09.377Z,7.00
2018-03-22T03:23:37.853Z,7.00
2018-03-22T03:26:04.901Z,7.00
2018-03-22T03:28:31.948Z,7.00
2018-03-22T03:30:58.794Z,6.90
2018-03-22T03:33:25.742Z,6.90
2018-03-22T03:35:52.804Z,6.80
2018-03-22T03:38:19.848Z,6.80
2018-03-22T03:40:47.008Z,6.80
2018-03-22T03:43:14.963Z,6.80
2018-03-22T03:45:42.014Z,6.80
2018-03-22T03:48:08.969Z,6.80
2018-03-22T03:50:36.007Z,6.80
2018-03-22T03:53:02.955Z,6.80
2018-03-22T03:55:30.006Z,6.70
2018-03-22T03:57:57.053Z,6.70
2018-03-22T04:00:24.103Z,6.60
2018-03-22T04:02:51.152Z,6.60
2018-03-22T04:05:18.018Z,6.60
2018-03-22T04:07:45.050Z,6.60
2018-03-22T04:10:12.096Z,6.60
2018-03-22T04:12:39.043Z,6.60
2018-03-22T04:15:06.204Z,6.60
2018-03-22T04:17:33.151Z,6.60
2018-03-22T04:20:00.095Z,6.60
2018-03-22T04:22:27.251Z,6.60
2018-03-22T04:24:54.190Z,6.50
2018-03-22T04:27:21.246Z,6.50
2018-03-22T04:29:48.298Z,6.50
2018-03-22T04:32:15.933Z,6.50
2018-03-22T04:34:42.896Z,6.50
2018-03-22T04:37:09.855Z,6.40
2018-03-22T04:39:36.904Z,6.50
2018-03-22T04:42:03.842Z,6.40
2018-03-22T04:44:30.889Z,6.40
2018-03-22T04:46:57.942Z,6.50
2018-03-22T04:49:24.896Z,6.50
2018-03-22T04:51:51.939Z,6.50
2018-03-22T04:54:19.012Z,6.50
2018-03-22T04:56:46.683Z,6.50
2018-03-22T04:59:14.574Z,6.50
2018-03-22T05:01:42.287Z,6.40
2018-03-22T05:04:09.131Z,6.40
2018-03-22T05:06:36.832Z,6.50
2018-03-22T05:09:04.670Z,6.40
2018-03-22T05:11:31.608Z,6.40
2018-03-22T05:13:58.594Z,6.40
2018-03-22T05:16:26.422Z,6.40
2018-03-22T05:18:53.472Z,6.30
2018-03-22T05:21:20.531Z,6.30
2018-03-22T05:23:47.570Z,6.30
2018-03-22T05:26:14.528Z,6.30
2018-03-22T05:28:42.182Z,6.30
2018-03-22T05:31:09.129Z,6.30
2018-03-22T05:33:37.519Z,6.30
2018-03-22T05:36:04.662Z,6.30
2018-03-22T05:38:31.724Z,6.30
2018-03-22T05:40:58.516Z,6.20
2018-03-22T05:43:25.616Z,6.20
2018-03-22T05:45:52.759Z,6.20
2018-03-22T05:48:20.421Z,6.10
2018-03-22T05:50:47.368Z,6.10
2018-03-22T05:53:14.213Z,6.10
2018-03-22T05:55:41.265Z,6.10
2018-03-22T05:58:08.321Z,6.10
2018-03-22T06:00:35.371Z,6.20
2018-03-22T06:03:02.205Z,6.10
2018-03-22T06:05:29.156Z,6.10
2018-03-22T06:07:56.101Z,6.20
2018-03-22T06:10:23.050Z,6.10
2018-03-22T06:12:50.927Z,6.20
2018-03-22T06:15:17.966Z,6.20
2018-03-22T06:17:44.915Z,6.20
2018-03-22T06:20:11.960Z,6.20
2018-03-22T06:22:39.013Z,6.20
2018-03-22T06:25:06.072Z,6.20
2018-03-22T06:27:33.118Z,6.10
2018-03-22T06:29:59.998Z,6.10
2018-03-22T06:32:27.587Z,6.10
2018-03-22T06:34:54.478Z,6.10
2018-03-22T06:37:21.374Z,6.10
2018-03-22T06:39:48.298Z,6.10
2018-03-22T06:42:15.907Z,6.10
2018-03-22T06:44:42.849Z,6.10
2018-03-22T06:47:09.760Z,6.10
2018-03-22T06:49:37.355Z,6.10
2018-03-22T06:52:04.266Z,6.00
2018-03-22T06:54:31.944Z,6.00
2018-03-22T06:56:58.836Z,6.00
2018-03-22T06:59:25.783Z,6.10
2018-03-22T07:01:52.736Z,6.00
2018-03-22T07:04:19.649Z,6.10
2018-03-22T07:06:46.512Z,6.10
2018-03-22T07:09:13.394Z,6.20
2018-03-22T07:11:40.952Z,6.30
2018-03-22T07:14:07.836Z,6.40
2018-03-22T07:19:32.387Z,6.50
2018-03-22T07:21:59.242Z,6.60
2018-03-22T07:24:26.076Z,6.60
2018-03-22T07:26:52.970Z,6.70
2018-03-22T07:29:19.790Z,6.70
2018-03-22T07:31:47.544Z,6.80
2018-03-22T07:34:14.408Z,6.80
2018-03-22T07:36:41.969Z,7.00
2018-03-22T07:39:09.528Z,7.00
2018-03-22T07:41:37.230Z,7.00
2018-03-22T07:44:10.157Z,7.00
2018-03-22T07:46:37.080Z,7.10
2018-03-22T07:49:04.049Z,7.10
2018-03-22T07:51:30.995Z,7.10
2018-03-22T07:53:57.921Z,7.10
2018-03-22T07:56:24.821Z,7.20
2018-03-22T07:58:52.559Z,7.20
2018-03-22T08:01:20.155Z,7.20
2018-03-22T08:03:46.980Z,7.20
2018-03-22T08:06:13.896Z,7.20
2018-03-22T08:08:40.794Z,7.30
2018-03-22T08:11:08.508Z,7.40
2018-03-22T08:13:37.232Z,7.30
2018-03-22T08:16:04.887Z,7.40
2018-03-22T08:18:31.784Z,7.40
2018-03-22T08:20:58.636Z,7.50
2018-03-22T08:23:25.499Z,7.50
2018-03-22T08:25:52.323Z,7.60
2018-03-22T08:28:19.586Z,7.60
2018-03-22T08:30:46.521Z,7.70
2018-03-22T08:33:13.388Z,7.80
2018-03-22T08:35:40.312Z,7.80
2018-03-22T08:38:07.120Z,7.90
2018-03-22T08:40:34.639Z,7.90
2018-03-22T08:43:01.510Z,7.90
2018-03-22T08:45:28.421Z,7.90
2018-03-22T08:47:55.282Z,8.10
2018-03-22T08:50:22.198Z,8.10
2018-03-22T08:52:49.105Z,8.20
2018-03-22T08:55:16.718Z,8.30
2018-03-22T08:57:43.598Z,8.30
2018-03-22T09:00:10.476Z,8.40
2018-03-22T09:02:37.398Z,8.50
2018-03-22T09:05:05.054Z,8.60
2018-03-22T09:07:31.979Z,8.60
2018-03-22T09:09:58.871Z,8.70
2018-03-22T09:12:26.524Z,8.80
2018-03-22T09:15:12.450Z,8.90
2018-03-22T09:17:39.348Z,8.90
2018-03-22T09:20:07.014Z,9.10
2018-03-22T09:22:34.674Z,9.20
2018-03-22T09:25:01.539Z,9.10
2018-03-22T09:27:29.123Z,9.60
2018-03-22T09:29:55.956Z,9.50
2018-03-22T09:32:23.626Z,10.10
2018-03-22T09:34:50.568Z,10.10
2018-03-22T09:37:17.515Z,10.50
2018-03-22T09:39:44.386Z,10.80
2018-03-22T09:42:11.192Z,11.10
2018-03-22T09:44:38.767Z,11.50
2018-03-22T09:47:05.706Z,11.40
2018-03-22T09:49:33.383Z,11.80
2018-03-22T09:52:00.343Z,11.80
2018-03-22T09:54:27.301Z,12.00
2018-03-22T09:56:54.272Z,12.20
2018-03-22T09:59:21.234Z,12.50
2018-03-22T10:01:48.128Z,12.70
2018-03-22T10:04:15.036Z,13.00
2018-03-22T10:06:42.617Z,13.50
2018-03-22T10:09:10.248Z,13.60
2018-03-22T10:11:37.186Z,13.60
2018-03-22T10:14:06.474Z,13.80
2018-03-22T10:16:33.394Z,13.80
2018-03-22T10:19:00.397Z,14.10
2018-03-22T10:21:27.276Z,14.20
2018-03-22T10:23:54.170Z,14.40
2018-03-22T10:26:21.033Z,14.60
2018-03-22T10:28:47.903Z,14.80
2018-03-22T10:31:15.428Z,15.10
2018-03-22T10:33:42.271Z,15.10
2018-03-22T10:36:09.166Z,15.30
2018-03-22T10:38:37.901Z,15.60
2018-03-22T10:41:04.856Z,15.90
2018-03-22T10:43:31.736Z,15.90
2018-03-22T10:45:58.614Z,16.10
2018-03-22T10:48:25.539Z,16.20
2018-03-22T10:50:52.477Z,16.30
2018-03-22T10:53:19.350Z,16.50
2018-03-22T10:55:46.226Z,16.60
2018-03-22T10:58:13.097Z,16.90
2018-03-22T11:03:45.102Z,17.30
2018-03-22T11:06:11.943Z,17.70
2018-03-22T11:08:38.861Z,17.90
2018-03-22T11:11:05.706Z,18.00
2018-03-22T11:13:32.574Z,18.20
2018-03-22T11:16:00.369Z,18.30
2018-03-22T11:18:31.230Z,18.30
2018-03-22T11:20:58.200Z,18.50
2018-03-22T11:23:25.036Z,18.70
2018-03-22T11:25:52.161Z,18.90
2018-03-22T11:28:18.992Z,18.90
2018-03-22T11:30:45.887Z,19.00
2018-03-22T11:33:12.742Z,19.00
2018-03-22T11:35:39.574Z,19.00
2018-03-22T11:38:06.474Z,19.20
2018-03-22T11:40:33.455Z,19.50
2018-03-22T11:43:00.386Z,19.30
2018-03-22T11:45:27.286Z,19.30
2018-03-22T11:47:54.907Z,19.60
2018-03-22T11:50:21.781Z,19.60
2018-03-22T11:52:48.615Z,19.70
2018-03-22T11:55:16.328Z,20.00
2018-03-22T11:57:43.250Z,20.00
2018-03-22T12:00:10.836Z,20.40
2018-03-22T12:02:37.694Z,20.30
2018-03-22T12:05:04.661Z,20.60
2018-03-22T12:07:31.577Z,20.80
2018-03-22T12:09:58.545Z,20.90
2018-03-22T12:12:25.483Z,21.00
2018-03-22T12:15:14.012Z,21.10
2018-03-22T12:17:41.320Z,21.30
2018-03-22T12:20:08.194Z,21.50
2018-03-22T12:22:35.930Z,21.70
2018-03-22T12:25:02.870Z,21.70
2018-03-22T12:27:29.796Z,21.70
2018-03-22T12:29:56.678Z,21.80
2018-03-22T12:32:23.541Z,22.00
2018-03-22T12:34:51.224Z,21.80
2018-03-22T12:37:18.119Z,21.80
2018-03-22T12:39:44.964Z,21.80
2018-03-22T12:42:11.864Z,22.00
2018-03-22T12:44:38.779Z,22.30
2018-03-22T12:47:06.468Z,22.70
2018-03-22T12:49:33.394Z,22.70
2018-03-22T12:52:01.104Z,22.80
2018-03-22T12:54:28.010Z,22.80
2018-03-22T12:56:55.636Z,23.00
2018-03-22T12:59:22.542Z,22.90
2018-03-22T13:01:49.466Z,23.00
2018-03-22T13:04:17.177Z,22.90
2018-03-22T13:06:44.048Z,22.90
2018-03-22T13:09:11.009Z,23.00
2018-03-22T13:11:37.815Z,23.10
2018-03-22T13:14:04.763Z,23.20
2018-03-22T13:16:31.642Z,23.30
2018-03-22T13:18:58.466Z,23.30
2018-03-22T13:21:25.299Z,23.20
2018-03-22T13:23:52.178Z,23.30
2018-03-22T13:26:19.022Z,23.50
2018-03-22T13:28:45.960Z,23.60
2018-03-22T13:31:12.976Z,23.80
2018-03-22T13:33:39.883Z,23.80
2018-03-22T13:36:07.521Z,24.10
2018-03-22T13:38:50.513Z,24.00
2018-03-22T13:41:17.497Z,24.00
2018-03-22T13:43:44.340Z,24.00
2018-03-22T13:46:11.296Z,24.00
2018-03-22T13:48:38.930Z,24.20
2018-03-22T13:51:05.803Z,24.10
2018-03-22T13:53:33.473Z,24.50
2018-03-22T13:56:01.104Z,24.60
2018-03-22T13:58:27.896Z,24.50
2018-03-22T14:00:55.530Z,24.70
2018-03-22T14:03:22.351Z,24.60
2018-03-22T14:05:49.182Z,24.60
2018-03-22T14:08:16.098Z,24.70
2018-03-22T14:10:43.064Z,24.80
2018-03-22T14:13:09.941Z,24.80
2018-03-22T14:18:38.582Z,24.80
2018-03-22T14:21:05.581Z,24.60
2018-03-22T14:23:32.424Z,24.60
2018-03-22T14:25:59.332Z,24.60
2018-03-22T14:28:26.936Z,24.40
2018-03-22T14:30:53.804Z,24.40
2018-03-22T14:33:20.611Z,24.30
2018-03-22T14:35:47.433Z,24.30
2018-03-22T14:38:14.351Z,24.30
2018-03-22T14:40:41.286Z,24.40
2018-03-22T14:43:08.228Z,24.40
2018-03-22T14:45:35.092Z,24.30
2018-03-22T14:48:02.730Z,24.30
2018-03-22T14:50:29.543Z,24.20
2018-03-22T14:52:56.449Z,24.40
2018-03-22T14:55:24.366Z,24.50
2018-03-22T14:57:51.371Z,24.50
2018-03-22T15:00:19.028Z,24.50
2018-03-22T15:02:46.638Z,24.50
2018-03-22T15:05:13.527Z,24.40
2018-03-22T15:07:40.428Z,24.50
2018-03-22T15:10:07.282Z,24.50
2018-03-22T15:12:34.169Z,24.40
2018-03-22T15:15:28.186Z,24.30
2018-03-22T15:17:55.113Z,24.20
2018-03-22T15:20:22.786Z,24.00
2018-03-22T15:22:50.487Z,24.10
2018-03-22T15:25:17.392Z,24.00
2018-03-22T15:27:44.983Z,24.00
2018-03-22T15:30:11.860Z,24.00
2018-03-22T15:32:38.734Z,24.00
2018-03-22T15:35:06.373Z,24.00
2018-03-22T15:37:33.280Z,23.90
2018-03-22T15:40:00.311Z,23.90
2018-03-22T15:42:27.208Z,23.70
2018-03-22T15:44:54.058Z,23.50
2018-03-22T15:47:20.924Z,23.40
2018-03-22T15:49:48.566Z,23.00
2018-03-22T15:52:15.431Z,23.00
2018-03-22T15:54:43.153Z,22.70
2018-03-22T15:57:10.068Z,22.60
2018-03-22T15:59:37.800Z,22.20
2018-03-22T16:02:04.686Z,22.20
2018-03-22T16:04:31.514Z,22.10
2018-03-22T16:06:59.175Z,21.60
2018-03-22T16:09:26.809Z,21.50
2018-03-22T16:11:53.671Z,21.50
2018-03-22T16:14:27.754Z,21.30
2018-03-22T16:16:54.820Z,21.00
2018-03-22T16:19:21.694Z,20.80
2018-03-22T16:21:49.247Z,20.50
2018-03-22T16:24:16.829Z,20.30
2018-03-22T16:26:43.740Z,20.20
2018-03-22T16:29:10.578Z,20.00
2018-03-22T16:31:37.382Z,19.70
2018-03-22T16:34:04.309Z,19.30
2018-03-22T16:36:31.135Z,19.20
2018-03-22T16:38:58.100Z,19.00
2018-03-22T16:41:24.989Z,18.90
2018-03-22T16:43:51.951Z,18.80
2018-03-22T16:46:18.816Z,18.70
2018-03-22T16:48:45.732Z,18.60
2018-03-22T16:51:13.384Z,18.40
2018-03-22T16:53:40.242Z,18.40
2018-03-22T16:56:07.185Z,18.30
2018-03-22T16:58:34.150Z,18.10
2018-03-22T17:01:01.761Z,17.90
2018-03-22T17:03:28.596Z,17.90
2018-03-22T17:05:56.389Z,17.50
2018-03-22T17:08:23.241Z,17.50
2018-03-22T17:10:50.110Z,17.30
2018-03-22T17:13:16.986Z,17.00
2018-03-22T17:18:53.794Z,16.70
2018-03-22T17:21:21.450Z,16.60
2018-03-22T17:23:51.556Z,16.50
2018-03-22T17:26:19.282Z,16.40
2018-03-22T17:28:46.164Z,16.40
2018-03-22T17:31:13.007Z,16.30
2018-03-22T17:33:39.899Z,16.20
2018-03-22T17:36:06.858Z,16.10
2018-03-22T17:38:33.941Z,15.90
2018-03-22T17:41:02.628Z,15.50
2018-03-22T17:43:29.607Z,15.60
2018-03-22T17:45:57.432Z,15.50
2018-03-22T17:48:24.399Z,15.60
2018-03-22T17:50:51.319Z,15.50
2018-03-22T17:53:18.540Z,15.60
2018-03-22T17:55:45.754Z,15.50
2018-03-22T17:58:12.881Z,15.50
2018-03-22T18:00:39.933Z,15.40
2018-03-22T18:03:07.869Z,15.20
2018-03-22T18:05:34.983Z,15.10
2018-03-22T18:08:02.919Z,15.10
2018-03-22T18:10:30.006Z,15.10
2018-03-22T18:12:58.052Z,15.10
2018-03-22T18:15:41.333Z,15.10
2018-03-22T18:18:08.661Z,15.00
2018-03-22T18:20:35.814Z,15.00
2018-03-22T18:23:02.950Z,14.90
2018-03-22T18:25:30.072Z,14.80
2018-03-22T18:27:57.385Z,14.80
2018-03-22T18:30:26.012Z,14.70
2018-03-22T18:32:53.530Z,14.60
2018-03-22T18:35:21.145Z,14.60
2018-03-22T18:37:48.871Z,14.60
2018-03-22T18:40:16.926Z,14.50
2018-03-22T18:42:44.990Z,14.50
2018-03-22T18:45:17.271Z,14.40
2018-03-22T18:47:45.009Z,14.30
2018-03-22T18:50:12.030Z,14.30
2018-03-22T18:52:39.317Z,14.40
2018-03-22T18:55:06.902Z,14.30
2018-03-22T18:57:36.871Z,14.20
2018-03-22T19:00:04.215Z,14.10
2018-03-22T19:02:31.343Z,14.00
2018-03-22T19:04:59.126Z,14.00
2018-03-22T19:07:26.764Z,14.00
2018-03-22T19:09:54.785Z,13.90
2018-03-22T19:12:22.043Z,13.90
2018-03-22T19:15:09.902Z,13.90
2018-03-22T19:17:37.198Z,13.80
2018-03-22T19:20:05.464Z,13.70
2018-03-22T19:22:33.127Z,13.70
2018-03-22T19:25:01.511Z,13.60
2018-03-22T19:27:29.933Z,13.60
2018-03-22T19:29:58.105Z,13.60
2018-03-22T19:32:25.314Z,13.60
2018-03-22T19:34:53.698Z,13.60
2018-03-22T19:37:22.088Z,13.50
2018-03-22T19:39:50.046Z,13.50
2018-03-22T19:42:17.889Z,13.40
2018-03-22T19:44:45.822Z,13.30
2018-03-22T19:47:13.010Z,13.30
2018-03-22T19:49:40.654Z,13.20
2018-03-22T19:52:07.970Z,13.10
2018-03-22T19:54:35.048Z,13.10
2018-03-22T19:57:02.309Z,13.10
2018-03-22T19:59:29.462Z,13.10
2018-03-22T20:01:56.695Z,13.10
2018-03-22T20:04:23.804Z,13.10
2018-03-22T20:06:50.977Z,13.10
2018-03-22T20:09:18.812Z,13.10
2018-03-22T20:11:45.959Z,13.00
2018-03-22T20:14:14.201Z,13.00
2018-03-22T20:17:17.151Z,12.90
2018-03-22T20:19:44.235Z,12.90
2018-03-22T20:22:11.449Z,12.90
2018-03-22T20:24:39.888Z,12.90
2018-03-22T20:27:07.580Z,12.80
2018-03-22T20:29:34.806Z,12.80
2018-03-22T20:32:02.029Z,12.70
2018-03-22T20:34:29.124Z,12.60
2018-03-22T20:36:57.106Z,12.50
2018-03-22T20:39:24.216Z,12.50
2018-03-22T20:41:51.243Z,12.40
2018-03-22T20:44:19.109Z,12.30
2018-03-22T20:46:46.968Z,12.30
2018-03-22T20:49:14.892Z,12.30
2018-03-22T20:51:41.999Z,12.30
2018-03-22T20:54:09.978Z,12.30
2018-03-22T20:56:37.039Z,12.30
2018-03-22T20:59:04.052Z,12.20
2018-03-22T21:01:31.038Z,12.20
2018-03-22T21:03:58.027Z,12.20
2018-03-22T21:06:24.935Z,12.20
2018-03-22T21:08:51.903Z,12.20
2018-03-22T21:11:24.066Z,12.20
2018-03-22T21:13:50.934Z,12.10
2018-03-22T21:19:35.683Z,12.10
2018-03-22T21:22:02.650Z,12.00
2018-03-22T21:24:30.906Z,11.90
2018-03-22T21:29:59.411Z,11.80
2018-03-22T21:32:26.616Z,11.70
2018-03-22T21:34:53.508Z,11.70
2018-03-22T21:37:20.436Z,11.70
2018-03-22T21:39:47.338Z,11.70
2018-03-22T21:42:14.274Z,11.70
2018-03-22T21:44:41.202Z,11.70
2018-03-22T21:47:20.409Z,11.60
2018-03-22T21:49:48.058Z,11.50
2018-03-22T21:52:27.832Z,11.40
2018-03-22T21:54:54.724Z,11.40
2018-03-22T21:57:21.642Z,11.30
2018-03-22T21:59:48.521Z,11.20
2018-03-22T22:02:15.411Z,11.20
2018-03-22T22:04:43.014Z,11.00
2018-03-22T22:07:09.945Z,11.00
2018-03-22T22:09:36.870Z,11.00
2018-03-22T22:12:03.841Z,11.00
2018-03-22T22:14:45.629Z,10.90
2018-03-22T22:17:21.335Z,10.90
2018-03-22T22:19:48.246Z,10.90
2018-03-22T22:22:15.145Z,10.90
2018-03-22T22:24:42.771Z,10.90
2018-03-22T22:27:09.770Z,10.90
2018-03-22T22:29:36.610Z,10.90
2018-03-22T22:32:04.357Z,10.80
2018-03-22T22:34:31.922Z,10.70
2018-03-22T22:36:59.528Z,10.70
2018-03-22T22:39:26.351Z,10.70
2018-03-22T22:41:54.000Z,10.60
2018-03-22T22:44:20.872Z,10.60
2018-03-22T22:46:47.717Z,10.60
2018-03-22T22:49:14.612Z,10.50
2018-03-22T22:51:41.411Z,10.50
2018-03-22T22:54:08.336Z,10.50
2018-03-22T22:56:35.253Z,10.50
2018-03-22T22:59:02.201Z,10.40
2018-03-22T23:01:29.091Z,10.30
2018-03-22T23:03:56.013Z,10.30
2018-03-22T23:06:23.653Z,10.30
2018-03-22T23:08:50.584Z,10.20
2018-03-22T23:11:17.509Z,10.20
2018-03-22T23:13:44.305Z,10.30
2018-03-22T23:16:11.961Z,10.20
2018-03-22T23:18:39.321Z,10.20
2018-03-22T23:21:08.909Z,10.20
2018-03-22T23:23:37.287Z,10.20
2018-03-22T23:26:04.330Z,10.20
2018-03-22T23:28:31.143Z,10.20
2018-03-22T23:30:58.041Z,10.10
2018-03-22T23:33:24.941Z,10.00
2018-03-22T23:35:51.896Z,9.90
2018-03-22T23:38:18.781Z,10.00
2018-03-22T23:40:45.606Z,9.90
2018-03-22T23:43:12.496Z,9.90
2018-03-22T23:45:40.173Z,9.90
2018-03-22T23:48:07.039Z,9.90
2018-03-22T23:50:33.948Z,10.00
2018-03-22T23:53:01.592Z,10.00
2018-03-22T23:55:28.527Z,10.00
2018-03-22T23:57:55.462Z,10.00
